createdAt,value
2023-08-26T00:02:16.436Z,100100.50
2023-08-26T00:04:44.563Z,100103.88
2023-08-26T00:07:12.672Z,100104.84
2023-08-26T00:09:40.709Z,100101.19
2023-08-26T00:12:09.372Z,100094.09
2023-08-26T00:14:37.488Z,100090.44
2023-08-26T00:17:06.637Z,100092.13
2023-08-26T00:19:36.412Z,100085.06
2023-08-26T00:22:06.400Z,99979.03
2023-08-26T00:24:35.308Z,100102.84
2023-08-26T00:27:03.478Z,100094.09
2023-08-26T00:29:31.693Z,100094.44
2023-08-26T00:31:59.969Z,100096.13
2023-08-26T00:34:28.066Z,100107.69
2023-08-26T00:36:57.630Z,100097.81
2023-08-26T00:39:25.810Z,100095.13
2023-08-26T00:41:53.951Z,100090.75
2023-08-26T00:44:23.702Z,100069.28
2023-08-26T00:46:51.891Z,100068.25
2023-08-26T00:49:20.557Z,100080.03
2023-08-26T00:51:49.423Z,100075.47
2023-08-26T00:54:19.417Z,100087.06
2023-08-26T00:56:48.163Z,100091.09
2023-08-26T00:59:16.381Z,100107.53
2023-08-26T01:01:45.679Z,100097.81
2023-08-26T01:04:14.049Z,100088.91
2023-08-26T01:06:42.181Z,100085.38
2023-08-26T01:09:10.455Z,100084.69
2023-08-26T01:11:44.343Z,100070.25
2023-08-26T01:14:19.290Z,100062.19
2023-08-26T01:16:47.704Z,100044.41
2023-08-26T01:19:23.690Z,100039.03
2023-08-26T01:21:57.298Z,100040.72
2023-08-26T01:24:28.135Z,100035.34
2023-08-26T01:26:56.269Z,100040.72
2023-08-26T01:29:24.455Z,100046.09
2023-08-26T01:31:59.698Z,100030.63
2023-08-26T01:34:32.847Z,100058.53
2023-08-26T01:37:02.180Z,100068.44
2023-08-26T01:39:32.773Z,100066.59
2023-08-26T01:42:03.584Z,100073.78
2023-08-26T01:44:33.268Z,100058.84
2023-08-26T01:47:01.500Z,99968.72
2023-08-26T01:49:29.693Z,100052.97
2023-08-26T01:51:57.849Z,100062.53
2023-08-26T01:54:26.084Z,100043.25
2023-08-26T01:56:55.768Z,99930.56
2023-08-26T01:59:24.011Z,100055.47
2023-08-26T02:01:52.174Z,100052.09
2023-08-26T02:04:20.379Z,100048.44
2023-08-26T02:06:48.570Z,100045.91
2023-08-26T02:09:17.166Z,100043.22
2023-08-26T02:11:45.290Z,100037.16
2023-08-26T02:14:14.891Z,100051.13
2023-08-26T02:16:42.967Z,100060.16
2023-08-26T02:19:11.186Z,100059.53
2023-08-26T02:21:39.401Z,99981.50
2023-08-26T02:24:09.263Z,100055.84
2023-08-26T02:26:38.942Z,100050.47
2023-08-26T02:29:07.098Z,100055.00
2023-08-26T02:31:37.345Z,100036.34
2023-08-26T02:34:05.610Z,100035.03
2023-08-26T02:36:33.746Z,100022.44
2023-08-26T02:39:01.876Z,99954.97
2023-08-26T02:41:30.006Z,100014.38
2023-08-26T02:43:58.074Z,100000.44
2023-08-26T02:46:26.267Z,100009.50
2023-08-26T02:48:57.431Z,100000.44
2023-08-26T02:51:25.761Z,100012.19
2023-08-26T02:53:53.921Z,100008.47
2023-08-26T02:56:22.090Z,99941.06
2023-08-26T02:58:50.429Z,99996.91
2023-08-26T03:01:18.681Z,100003.44
2023-08-26T03:03:47.089Z,100017.56
2023-08-26T03:06:16.641Z,100014.38
2023-08-26T03:08:45.170Z,100007.47
2023-08-26T03:11:14.654Z,99855.13
2023-08-26T03:13:42.730Z,99940.22
2023-08-26T03:16:12.689Z,99861.69
2023-08-26T03:18:41.440Z,100008.47
2023-08-26T03:21:11.431Z,100016.53
2023-08-26T03:23:41.028Z,100010.16
2023-08-26T03:26:09.460Z,99999.56
2023-08-26T03:28:37.618Z,100012.84
2023-08-26T03:31:07.255Z,100012.84
2023-08-26T03:33:36.271Z,100004.09
2023-08-26T03:36:05.998Z,100010.16
2023-08-26T03:38:34.521Z,100000.44
2023-08-26T03:41:05.921Z,99933.50
2023-08-26T03:43:34.721Z,100000.44
2023-08-26T03:46:04.779Z,100014.84
2023-08-26T03:48:33.097Z,100010.31
2023-08-26T03:51:01.252Z,99999.38
2023-08-26T03:53:29.576Z,100011.16
2023-08-26T03:55:57.683Z,100012.00
2023-08-26T03:58:28.119Z,100011.16
2023-08-26T04:01:02.579Z,99920.06
2023-08-26T04:03:31.199Z,100006.63
2023-08-26T04:06:01.246Z,100002.94
2023-08-26T04:08:29.483Z,100005.81
2023-08-26T04:10:58.266Z,99994.19
2023-08-26T04:13:29.107Z,99991.84
2023-08-26T04:15:58.507Z,100003.28
2023-08-26T04:18:27.164Z,100000.75
2023-08-26T04:20:55.342Z,99999.38
2023-08-26T04:23:23.484Z,100000.75
2023-08-26T04:25:53.001Z,99963.78
2023-08-26T04:28:21.102Z,100004.09
2023-08-26T04:30:50.628Z,100004.94
2023-08-26T04:33:21.629Z,100014.00
2023-08-26T04:35:49.857Z,100011.16
2023-08-26T04:38:17.983Z,100009.47
2023-08-26T04:40:46.424Z,100005.81
2023-08-26T04:43:14.531Z,100011.16
2023-08-26T04:45:42.769Z,100003.75
2023-08-26T04:48:12.344Z,100002.09
2023-08-26T04:50:42.662Z,100006.44
2023-08-26T04:53:10.870Z,100007.63
2023-08-26T04:55:39.019Z,100008.66
2023-08-26T04:58:10.334Z,99993.69
2023-08-26T05:00:42.793Z,99843.41
2023-08-26T05:03:12.632Z,99999.41
2023-08-26T05:05:42.803Z,99939.19
2023-08-26T05:08:11.302Z,99993.34
2023-08-26T05:10:39.867Z,100004.78
2023-08-26T05:13:08.373Z,100009.81
2023-08-26T05:15:36.497Z,99995.38
2023-08-26T05:18:04.790Z,99963.44
2023-08-26T05:20:34.664Z,100000.09
2023-08-26T05:23:02.968Z,99996.41
2023-08-26T05:25:32.352Z,99996.41
2023-08-26T05:28:00.651Z,99896.06
2023-08-26T05:30:28.922Z,99903.31
2023-08-26T05:32:57.133Z,99968.19
2023-08-26T05:35:25.342Z,99971.53
2023-08-26T05:37:55.359Z,99894.25
2023-08-26T05:40:28.331Z,99974.91
2023-08-26T05:42:57.647Z,99976.59
2023-08-26T05:45:26.402Z,99872.03
2023-08-26T05:47:55.746Z,99987.31
2023-08-26T05:50:24.460Z,99992.69
2023-08-26T05:52:53.168Z,99983.63
2023-08-26T05:55:23.010Z,99993.72
2023-08-26T05:57:51.269Z,99977.56
2023-08-26T06:00:19.766Z,99853.66
2023-08-26T06:02:47.914Z,99985.66
2023-08-26T06:05:16.405Z,99987.66
2023-08-26T06:07:44.921Z,99859.50
2023-08-26T06:10:14.513Z,99994.72
2023-08-26T06:12:44.099Z,99985.66
2023-08-26T06:15:12.465Z,99991.03
2023-08-26T06:17:42.647Z,99836.03
2023-08-26T06:20:14.589Z,99961.94
2023-08-26T06:22:46.521Z,99996.41
2023-08-26T06:25:15.016Z,99980.28
2023-08-26T06:27:44.651Z,99987.97
2023-08-26T06:30:13.307Z,99917.53
2023-08-26T06:32:41.585Z,99998.06
2023-08-26T06:35:10.424Z,99987.31
2023-08-26T06:37:38.651Z,99977.75
2023-08-26T06:40:07.491Z,99987.66
2023-08-26T06:42:46.598Z,99974.22
2023-08-26T06:45:17.309Z,99977.75
2023-08-26T06:47:45.532Z,99973.56
2023-08-26T06:50:13.815Z,99969.88
2023-08-26T06:52:43.217Z,99831.19
2023-08-26T06:55:11.612Z,99949.38
2023-08-26T06:57:40.334Z,99891.56
2023-08-26T07:00:10.393Z,99968.84
2023-08-26T07:02:39.966Z,99969.03
2023-08-26T07:05:09.029Z,99876.28
2023-08-26T07:07:38.957Z,99883.84
2023-08-26T07:10:08.559Z,99961.97
2023-08-26T07:12:37.339Z,99958.44
2023-08-26T07:15:06.826Z,99971.88
2023-08-26T07:17:37.288Z,99977.25
2023-08-26T07:20:09.786Z,99931.88
2023-08-26T07:22:41.893Z,99961.13
2023-08-26T07:25:14.309Z,99963.16
2023-08-26T07:27:55.704Z,99964.50
2023-08-26T07:30:27.088Z,99762.88
2023-08-26T07:32:56.123Z,99960.81
2023-08-26T07:35:26.254Z,99950.91
2023-08-26T07:37:56.302Z,99859.69
2023-08-26T07:40:25.429Z,99962.84
2023-08-26T07:42:54.060Z,99863.34
2023-08-26T07:45:22.237Z,99969.88
2023-08-26T07:50:21.629Z,99969.03
2023-08-26T07:52:51.167Z,99966.34
2023-08-26T07:55:19.500Z,99966.50
2023-08-26T07:57:47.683Z,99978.28
2023-08-26T08:00:16.372Z,99974.59
2023-08-26T08:02:44.565Z,99987.31
2023-08-26T08:05:12.915Z,99995.38
2023-08-26T08:07:41.498Z,99985.00
2023-08-26T08:10:14.694Z,99976.78
2023-08-26T08:12:43.217Z,99978.78
2023-08-26T08:15:11.894Z,99975.59
2023-08-26T08:17:40.317Z,99982.69
2023-08-26T08:20:09.370Z,99967.53
2023-08-26T08:22:40.174Z,99971.94
2023-08-26T08:25:11.981Z,99977.78
2023-08-26T08:27:42.150Z,99982.03
2023-08-26T08:30:10.766Z,99985.38
2023-08-26T08:32:39.179Z,99987.09
2023-08-26T08:35:08.648Z,99980.69
2023-08-26T08:37:37.387Z,99973.66
2023-08-26T08:40:06.754Z,99948.09
2023-08-26T08:42:36.754Z,99900.19
2023-08-26T08:45:06.048Z,99942.03
2023-08-26T08:47:34.410Z,99883.56
2023-08-26T08:50:04.295Z,99975.66
2023-08-26T08:52:34.339Z,99973.97
2023-08-26T08:55:02.572Z,99823.06
2023-08-26T08:57:33.928Z,99908.75
2023-08-26T09:00:07.737Z,99977.34
2023-08-26T09:02:41.058Z,99980.69
2023-08-26T09:05:10.682Z,99984.41
2023-08-26T09:07:41.036Z,99989.44
2023-08-26T09:10:12.083Z,99996.47
2023-08-26T09:12:42.221Z,99997.47
2023-08-26T09:15:12.342Z,99994.94
2023-08-26T09:17:46.285Z,100001.50
2023-08-26T09:20:14.703Z,99933.06
2023-08-26T09:22:43.281Z,99912.41
2023-08-26T09:25:11.453Z,99990.91
2023-08-26T09:27:44.103Z,99992.03
2023-08-26T09:30:26.511Z,100006.16
2023-08-26T09:32:56.604Z,99990.03
2023-08-26T09:38:00.341Z,99929.03
2023-08-26T09:40:28.716Z,99994.78
2023-08-26T09:42:57.485Z,99932.06
2023-08-26T09:45:27.654Z,100004.81
2023-08-26T09:47:57.535Z,99926.84
2023-08-26T09:50:32.880Z,100007.50
2023-08-26T09:53:01.526Z,100013.19
2023-08-26T09:55:30.876Z,100012.72
2023-08-26T09:57:59.568Z,99933.88
2023-08-26T10:00:30.602Z,99993.34
2023-08-26T10:03:04.543Z,100021.25
2023-08-26T10:05:37.740Z,100023.28
2023-08-26T10:08:10.945Z,100015.22
2023-08-26T10:10:49.181Z,100023.28
2023-08-26T10:13:22.308Z,100022.59
2023-08-26T10:15:55.406Z,100025.97
2023-08-26T10:18:34.480Z,100030.50
2023-08-26T10:21:05.280Z,100033.34
2023-08-26T10:23:34.884Z,100033.34
2023-08-26T10:26:04.204Z,99891.06
2023-08-26T10:28:35.696Z,100035.34
2023-08-26T10:31:09.478Z,100029.66
2023-08-26T10:34:02.891Z,100021.44
2023-08-26T10:36:31.242Z,100024.19
2023-08-26T10:39:00.725Z,100035.09
2023-08-26T10:41:29.460Z,99931.03
2023-08-26T10:43:59.967Z,100029.75
2023-08-26T10:46:36.803Z,100028.72
2023-08-26T10:49:05.608Z,99943.28
2023-08-26T10:51:37.166Z,100027.56
2023-08-26T10:54:06.262Z,99974.59
2023-08-26T10:56:35.589Z,100040.53
2023-08-26T10:59:05.143Z,100035.47
2023-08-26T11:01:37.980Z,100037.50
2023-08-26T11:04:06.908Z,100047.91
2023-08-26T11:06:38.787Z,100039.84
2023-08-26T11:09:07.066Z,100028.25
2023-08-26T11:11:35.295Z,100034.81
2023-08-26T11:14:03.872Z,100036.81
2023-08-26T11:16:32.089Z,100033.13
2023-08-26T11:19:02.343Z,100031.44
2023-08-26T11:21:30.459Z,100028.06
2023-08-26T11:24:00.525Z,100017.31
2023-08-26T11:26:29.966Z,100024.72
2023-08-26T11:29:01.947Z,100012.28
2023-08-26T11:31:31.168Z,100013.28
2023-08-26T11:33:59.402Z,100007.91
2023-08-26T11:36:29.393Z,100012.28
2023-08-26T11:38:59.013Z,100014.31
2023-08-26T11:41:28.687Z,100007.22
2023-08-26T11:43:56.810Z,100003.88
2023-08-26T11:46:25.382Z,99993.97
2023-08-26T11:48:53.518Z,99994.81
2023-08-26T11:51:21.907Z,99993.13
2023-08-26T11:53:52.169Z,99980.34
2023-08-26T11:56:20.962Z,99957.34
2023-08-26T11:58:49.007Z,99969.94
2023-08-26T12:01:17.184Z,99964.56
2023-08-26T12:03:46.216Z,99962.91
2023-08-26T12:06:16.583Z,99933.84
2023-08-26T12:08:45.947Z,99949.81
2023-08-26T12:11:17.788Z,99930.66
2023-08-26T12:13:46.276Z,99939.06
2023-08-26T12:16:14.547Z,99941.75
2023-08-26T12:18:43.543Z,99934.69
2023-08-26T12:21:11.828Z,99930.00
2023-08-26T12:23:40.341Z,99919.25
2023-08-26T12:26:18.565Z,99928.31
2023-08-26T12:28:46.659Z,99928.31
2023-08-26T12:31:14.899Z,99933.69
2023-08-26T12:33:58.066Z,99922.94
2023-08-26T12:36:28.374Z,99921.25
2023-08-26T12:38:56.657Z,99921.25
2023-08-26T12:41:26.275Z,99907.50
2023-08-26T12:43:56.372Z,99901.78
2023-08-26T12:46:24.693Z,99892.72
2023-08-26T12:48:55.769Z,99881.63
2023-08-26T12:51:25.014Z,99892.72
2023-08-26T12:53:53.555Z,99891.03
2023-08-26T12:56:22.162Z,99888.34
2023-08-26T12:58:52.892Z,99867.19
2023-08-26T13:01:21.187Z,99883.97
2023-08-26T13:03:49.311Z,99884.97
2023-08-26T13:06:17.726Z,99825.53
2023-08-26T13:08:45.867Z,99886.00
2023-08-26T13:11:13.967Z,99883.31
2023-08-26T13:13:42.092Z,99884.31
2023-08-26T13:16:11.903Z,99810.09
2023-08-26T13:18:44.228Z,99878.94
2023-08-26T13:21:12.716Z,99869.88
2023-08-26T13:23:40.804Z,99873.56
2023-08-26T13:26:08.837Z,99875.25
2023-08-26T13:28:36.944Z,99880.78
2023-08-26T13:31:05.045Z,99891.38
2023-08-26T13:33:34.567Z,99883.97
2023-08-26T13:36:02.779Z,99873.38
2023-08-26T13:38:30.875Z,99882.31
2023-08-26T13:40:59.061Z,99877.94
2023-08-26T13:43:27.214Z,99877.59
2023-08-26T13:45:55.274Z,99884.31
2023-08-26T13:48:23.337Z,99879.78
2023-08-26T13:50:52.914Z,99868.19
2023-08-26T13:53:20.962Z,99881.63
2023-08-26T13:55:56.227Z,99860.47
2023-08-26T13:58:24.397Z,99871.88
2023-08-26T14:00:52.685Z,99878.94
2023-08-26T14:03:20.826Z,99882.63
2023-08-26T14:05:51.950Z,99882.63
2023-08-26T14:08:21.405Z,99886.34
2023-08-26T14:10:49.438Z,99893.38
2023-08-26T14:13:17.609Z,99891.72
2023-08-26T14:15:47.537Z,99880.13
2023-08-26T14:18:15.675Z,99883.81
2023-08-26T14:20:45.162Z,99886.34
2023-08-26T14:23:13.385Z,99890.00
2023-08-26T14:25:43.952Z,99888.34
2023-08-26T14:28:12.121Z,99890.69
2023-08-26T14:30:40.232Z,99890.88
2023-08-26T14:33:08.426Z,99890.00
2023-08-26T14:35:36.588Z,99892.03
2023-08-26T14:38:05.082Z,99897.09
2023-08-26T14:40:33.158Z,99902.47
2023-08-26T14:43:02.602Z,99898.06
2023-08-26T14:45:30.693Z,99898.75
2023-08-26T14:47:59.089Z,99901.78
2023-08-26T14:50:27.417Z,99894.91
2023-08-26T14:52:56.080Z,99907.84
2023-08-26T14:55:25.180Z,99885.00
2023-08-26T14:57:53.273Z,99910.34
2023-08-26T15:00:24.326Z,99908.16
2023-08-26T15:02:52.715Z,99910.16
2023-08-26T15:05:20.807Z,99918.56
2023-08-26T15:07:48.918Z,99931.00
2023-08-26T15:10:17.308Z,99922.94
2023-08-26T15:12:46.280Z,99925.63
2023-08-26T15:15:14.866Z,99921.91
2023-08-26T15:17:44.934Z,99931.00
2023-08-26T15:20:13.701Z,99920.25
2023-08-26T15:22:41.788Z,99921.25
2023-08-26T15:25:10.578Z,99925.63
2023-08-26T15:27:38.708Z,99925.63
2023-08-26T15:30:09.034Z,99909.50
2023-08-26T15:32:37.317Z,99907.84
2023-08-26T15:35:07.294Z,99907.84
2023-08-26T15:37:35.482Z,99916.88
2023-08-26T15:40:06.584Z,99906.13
2023-08-26T15:42:35.099Z,99917.91
2023-08-26T15:45:03.458Z,99914.19
2023-08-26T15:47:31.534Z,99916.88
2023-08-26T15:49:59.598Z,99920.56
2023-08-26T15:52:29.093Z,99918.91
2023-08-26T15:54:57.343Z,99909.84
2023-08-26T15:57:25.484Z,99932.34
2023-08-26T15:59:53.525Z,99930.31
2023-08-26T16:02:21.634Z,99929.66
2023-08-26T16:04:49.734Z,99928.63
2023-08-26T16:07:17.835Z,99932.00
2023-08-26T16:09:47.364Z,99923.94
2023-08-26T16:12:17.698Z,99932.66
2023-08-26T16:14:46.122Z,99932.66
2023-08-26T16:17:14.438Z,99932.66
2023-08-26T16:19:42.556Z,99929.00
2023-08-26T16:22:10.641Z,99925.28
2023-08-26T16:24:38.753Z,99924.44
2023-08-26T16:27:10.288Z,99919.91
2023-08-26T16:29:38.528Z,99929.63
2023-08-26T16:32:06.811Z,99916.22
2023-08-26T16:34:38.523Z,99925.28
2023-08-26T16:37:06.707Z,99926.97
2023-08-26T16:39:35.031Z,99928.66
2023-08-26T16:42:03.117Z,99928.66
2023-08-26T16:44:32.568Z,99923.28
2023-08-26T16:47:00.673Z,99861.78
2023-08-26T16:49:28.853Z,99928.66
2023-08-26T16:51:56.945Z,99925.28
2023-08-26T16:54:25.077Z,99928.66
2023-08-26T16:56:53.195Z,99928.66
2023-08-26T16:59:21.270Z,99935.69
2023-08-26T17:01:51.020Z,99941.06
2023-08-26T17:04:19.276Z,99939.41
2023-08-26T17:06:47.640Z,99943.75
2023-08-26T17:09:16.232Z,99934.69
2023-08-26T17:11:44.294Z,99935.69
2023-08-26T17:14:12.418Z,99937.38
2023-08-26T17:16:40.642Z,99934.03
2023-08-26T17:19:11.305Z,99939.06
2023-08-26T17:21:39.432Z,99948.13
2023-08-26T17:24:07.938Z,99944.78
2023-08-26T17:26:36.057Z,99924.63
2023-08-26T17:29:04.325Z,99944.09
2023-08-26T17:31:32.674Z,99946.78
2023-08-26T17:34:00.935Z,99944.78
2023-08-26T17:36:32.280Z,99946.78
2023-08-26T17:39:00.388Z,99945.09
2023-08-26T17:41:28.587Z,99941.75
2023-08-26T17:43:56.638Z,99952.16
2023-08-26T17:46:24.739Z,99945.09
2023-08-26T17:48:52.815Z,99938.56
2023-08-26T17:51:20.935Z,99934.38
2023-08-26T17:53:50.456Z,99928.13
2023-08-26T17:56:21.216Z,99937.69
2023-08-26T17:58:49.354Z,99932.31
2023-08-26T18:01:17.531Z,99932.66
2023-08-26T18:03:45.663Z,99929.97
2023-08-26T18:06:13.809Z,99933.00
2023-08-26T18:08:41.915Z,99935.69
2023-08-26T18:11:11.518Z,99947.97
2023-08-26T18:13:39.635Z,99951.47
2023-08-26T18:16:07.897Z,99952.50
2023-08-26T18:18:36.024Z,99951.31
2023-08-26T18:21:04.288Z,99942.06
2023-08-26T18:23:32.401Z,99961.22
2023-08-26T18:26:00.608Z,99965.91
2023-08-26T18:28:31.670Z,99961.22
2023-08-26T18:30:59.882Z,99970.97
2023-08-26T18:33:28.053Z,99964.56
2023-08-26T18:35:56.124Z,99971.97
2023-08-26T18:38:24.256Z,99980.69
2023-08-26T18:40:58.725Z,99987.75
2023-08-26T18:43:27.331Z,99983.38
2023-08-26T18:45:57.272Z,99904.03
2023-08-26T18:48:25.427Z,99998.50
2023-08-26T18:51:00.812Z,100000.19
2023-08-26T18:53:29.743Z,100003.03
2023-08-26T18:55:58.000Z,99996.81
2023-08-26T18:58:26.806Z,99998.50
2023-08-26T19:00:57.959Z,100005.56
2023-08-26T19:03:26.289Z,100017.16
2023-08-26T19:05:54.573Z,100012.78
2023-08-26T19:08:22.705Z,100007.88
2023-08-26T19:10:57.064Z,100013.25
2023-08-26T19:13:25.608Z,100022.00
2023-08-26T19:15:54.820Z,100018.31
2023-08-26T19:18:24.320Z,99925.88
2023-08-26T19:20:52.809Z,100012.94
2023-08-26T19:23:21.075Z,100029.06
2023-08-26T19:25:50.880Z,100022.00
2023-08-26T19:28:19.349Z,100037.13
2023-08-26T19:30:48.210Z,100018.63
2023-08-26T19:33:16.421Z,100028.25
2023-08-26T19:35:46.427Z,100033.63
2023-08-26T19:38:14.564Z,100022.00
2023-08-26T19:40:42.744Z,100027.38
2023-08-26T19:43:10.820Z,100030.06
2023-08-26T19:45:41.375Z,100030.25
2023-08-26T19:48:11.238Z,100037.97
2023-08-26T19:50:40.841Z,100039.81
2023-08-26T19:53:10.336Z,100043.50
2023-08-26T19:55:38.594Z,100055.09
2023-08-26T19:58:06.875Z,100057.97
2023-08-26T20:00:35.174Z,100057.97
2023-08-26T20:03:03.340Z,100057.97
2023-08-26T20:05:31.532Z,100063.34
2023-08-26T20:08:00.130Z,100047.53
2023-08-26T20:10:30.494Z,100050.88
2023-08-26T20:12:58.631Z,100046.53
2023-08-26T20:15:26.954Z,100049.22
2023-08-26T20:17:55.057Z,100051.91
2023-08-26T20:20:23.188Z,100054.56
2023-08-26T20:22:51.318Z,100057.28
2023-08-26T20:25:19.569Z,100051.91
2023-08-26T20:27:49.068Z,100049.22
2023-08-26T20:30:17.387Z,100054.56
2023-08-26T20:32:45.633Z,100063.34
2023-08-26T20:35:13.741Z,100059.63
2023-08-26T20:37:41.831Z,100068.69
2023-08-26T20:40:11.401Z,100065.16
2023-08-26T20:42:42.154Z,100050.56
2023-08-26T20:45:12.496Z,100061.94
2023-08-26T20:47:40.596Z,100072.38
2023-08-26T20:50:13.285Z,100070.69
2023-08-26T20:52:41.992Z,100060.59
2023-08-26T20:55:10.590Z,100070.69
2023-08-26T20:57:38.674Z,100080.59
2023-08-26T21:00:08.029Z,100085.16
2023-08-26T21:02:37.537Z,100079.78
2023-08-26T21:05:06.358Z,100073.06
2023-08-26T21:07:34.536Z,100079.44
2023-08-26T21:10:02.699Z,100079.78
2023-08-26T21:12:31.148Z,100080.59
2023-08-26T21:14:59.353Z,100081.44
2023-08-26T21:17:27.550Z,100072.69
2023-08-26T21:19:57.535Z,100070.00
2023-08-26T21:22:25.590Z,100078.06
2023-08-26T21:24:53.734Z,100065.31
2023-08-26T21:27:21.867Z,100076.25
2023-08-26T21:29:49.988Z,100073.56
2023-08-26T21:32:18.080Z,100072.19
2023-08-26T21:34:46.226Z,100063.13
2023-08-26T21:37:15.790Z,100068.19
2023-08-26T21:39:43.887Z,100069.84
2023-08-26T21:42:11.993Z,100073.56
2023-08-26T21:44:40.125Z,100069.03
2023-08-26T21:47:08.178Z,100067.31
2023-08-26T21:49:36.294Z,100066.50
2023-08-26T21:52:04.487Z,100065.97
2023-08-26T21:54:34.044Z,100069.03
2023-08-26T21:57:02.371Z,100076.06
2023-08-26T21:59:32.027Z,100079.78
2023-08-26T22:02:00.138Z,100084.13
2023-08-26T22:04:29.635Z,100005.38
2023-08-26T22:06:57.776Z,100081.44
2023-08-26T22:09:25.935Z,100078.75
2023-08-26T22:11:55.511Z,100083.97
2023-08-26T22:14:23.666Z,100077.75
2023-08-26T22:16:52.526Z,100020.84
2023-08-26T22:19:20.629Z,100071.56
2023-08-26T22:21:48.783Z,100076.94
2023-08-26T22:24:16.839Z,100067.31
2023-08-26T22:26:45.124Z,100074.25
2023-08-26T22:29:14.706Z,100064.31
2023-08-26T22:31:42.820Z,100073.56
2023-08-26T22:34:10.962Z,100079.78
2023-08-26T22:36:41.345Z,100070.88
2023-08-26T22:39:19.454Z,100065.66
2023-08-26T22:41:53.000Z,100044.94
2023-08-26T22:44:22.930Z,100073.72
2023-08-26T22:46:51.029Z,100073.06
2023-08-26T22:49:19.283Z,100080.09
2023-08-26T22:51:47.598Z,100082.63
2023-08-26T22:54:15.656Z,100076.06
2023-08-26T22:56:43.732Z,100072.69
2023-08-26T22:59:11.826Z,100072.69
2023-08-26T23:01:41.344Z,100070.69
2023-08-26T23:04:09.516Z,100076.06
2023-08-26T23:06:37.623Z,100067.31
2023-08-26T23:09:07.737Z,100062.81
2023-08-26T23:11:35.838Z,100070.00
2023-08-26T23:14:03.948Z,100072.22
2023-08-26T23:16:32.069Z,100065.00
2023-08-26T23:19:01.690Z,100055.44
2023-08-26T23:21:29.768Z,100061.63
2023-08-26T23:23:57.931Z,100062.63
2023-08-26T23:26:27.217Z,100059.09
2023-08-26T23:28:55.312Z,100064.31
2023-08-26T23:31:23.474Z,100065.31
2023-08-26T23:33:52.322Z,100065.31
2023-08-26T23:36:22.232Z,100058.94
2023-08-26T23:38:50.461Z,100067.00
2023-08-26T23:41:18.612Z,99969.47
2023-08-26T23:43:46.677Z,100059.94
2023-08-26T23:46:14.967Z,100060.81
2023-08-26T23:48:43.083Z,100053.25
2023-08-26T23:51:11.168Z,100065.31
2023-08-26T23:53:40.724Z,100063.34
2023-08-26T23:56:08.804Z,100068.69
2023-08-26T23:58:36.930Z,100066.00
